Terminal Aerodrome Forecast
Issued by NWS Twin Cities, MN

Home | Current Version | Previous Version | Graphics & Text | Print | Product List | Glossary On
Versions: 1 2 3 4 5 6 7 8 9 10 11 12 13 14 15 16 17 18 19 20 21 22 23 24 25 26 27
000
FTUS43 KMPX 281100
TAFMSP
TAF
KMSP 281137Z 2812/2918 11004KT 6SM HZ FEW060
     FM281400 18006KT P6SM SCT060
     FM281900 20010KT P6SM SCT050
     FM290000 22005KT P6SM SCT060
     FM290900 27004KT P6SM SCT025 BKN060
     FM291200 02008KT P6SM VCSH BKN025 OVC040=

USA.gov is the U.S. government's official web portal to all federal, state and local government web resources and services.